aviador You're here:

CYPY Decoded Metar

FORT CHIPEWYAN in AB, CANADA
Report Time2017-12-11 05:00:00
UTC Time2017-12-11 05:29:52
Flight Rules mvfr MVFR
Wind110° at 05 kt
W.Decomp.*RWY 03: 2.3 kt HW 4.4 kt RCW
W.Rank110° ranks 3
Current wind is below 110° avg. (6.5)
Visibility6437 m
Phenomena:Light Snow
Clouds:Overcast 050 Hf
Expected CloudBase > 400 ft AGL from Temp-Dew spread
Ceiling5,000 ft
Temp-10°C (ISA -23)
Dew Point-11°C (92% RH)
AAT-14.9°C
QNH1022 hPa
Density Alt-2,441 ft
Elevation761 ft
Report Wrong Elevation
Raw Report
CYPY 110500Z AUTO 11005KT 4SM -SN OVC050 M10/M11 A3018 RMK
SLP242=

Extra information for CYPY:More info

Metar Taf Metar & Taf Last 4 Metars F.Rules Stats Wind Profile Meteogram Temp Stats Airport Information Weather charts Add Link Nearby VenuesMetar ALERT Operation Metar Decoded Social comments